Otter Lake, Indiana
Current Conditions -  °F | °C
As of 10:55 PM on Monday 22 Dec 2014 (Local Time) from KANQ Reporting Station
Overcast Overcast  
Wind Chill: 28°   Ceiling: 4300
Heat Index: 36°   Visibility: 5mi
Dew Point: 34°   Wind: 10mph
Humidity: 93%   Direction: 120°ESE
Pressure: 29.75"   Gusts: NA
Location:  41.7284°N, 84.9169°W
Report Text: KANQ 230355Z AUTO 12009KT 5SM SCT036 BKN043 OVC060 02/01 A2975 RMK
Loading
Personal Weather Stations






























Interactive Weather Map New forecast layout! Learn more

10-Day Weather Forecast

Advertisements
Track Severe Weather on mobile